Time;durP1;ratioP1;P1;durP2;ratioP2;P2;SDS_P1;SDS_P2;PMS_P1;PMS_P2;Temp;Humidity;BMP_temperature;BMP_pressure;BME280_temperature;BME280_humidity;BME280_pressure;Samples;Min_cycle;Max_cycle;Signal;HPM_P1;HPM_P2
2020/02/21 00:00:12;;;;;;;3.7;2.4;;;;;;;6.94;66.7959;95295.12;;;;
2020/02/21 00:01:13;;;;;;;3.7;2.4;;;;;;;6.94;66.7959;95295.12;;;;
2020/02/21 00:02:15;;;;;;;3.7;2.4;;;;;;;6.94;66.7959;95295.12;;;;
2020/02/21 00:03:16;;;;;;;3.7;2.4;;;;;;;6.94;66.7959;95295.12;;;;
2020/02/21 00:04:16;;;;;;;3.7;2.4;;;;;;;6.94;66.7959;95295.12;;;;
2020/02/21 00:05:17;;;;;;;3.7;2.4;;;;;;;6.94;66.7959;95295.12;;;;
2020/02/21 00:06:17;;;;;;;3.7;2.4;;;;;;;6.94;66.7959;95295.12;;;;
2020/02/21 00:07:17;;;;;;;3.7;2.4;;;;;;;6.94;66.7959;95295.12;;;;
2020/02/21 00:08:18;;;;;;;3.7;2.4;;;;;;;6.94;66.7959;95295.12;;;;
2020/02/21 00:09:18;;;;;;;3.7;2.4;;;;;;;6.94;66.7959;95295.12;;;;
2020/02/21 00:10:19;;;;;;;3.7;2.4;;;;;;;6.94;66.7959;95295.12;;;;
2020/02/21 00:11:19;;;;;;;4.45;2.5;;;;;;;7.48;66.10059;95287.06;;;;
2020/02/21 00:12:20;;;;;;;4.45;2.5;;;;;;;7.48;66.10059;95287.06;;;;
2020/02/21 00:13:20;;;;;;;4.45;2.5;;;;;;;7.48;66.10059;95287.06;;;;
2020/02/21 00:14:21;;;;;;;4.45;2.5;;;;;;;7.48;66.10059;95287.06;;;;
2020/02/21 00:15:21;;;;;;;4.45;2.5;;;;;;;7.48;66.10059;95287.06;;;;
2020/02/21 00:16:22;;;;;;;4.45;2.5;;;;;;;7.48;66.10059;95287.06;;;;
2020/02/21 00:17:22;;;;;;;4.45;2.5;;;;;;;7.48;66.10059;95287.06;;;;
2020/02/21 00:18:23;;;;;;;4.45;2.5;;;;;;;7.48;66.10059;95287.06;;;;
2020/02/21 00:19:23;;;;;;;4.45;2.5;;;;;;;7.48;66.10059;95287.06;;;;
2020/02/21 00:20:23;;;;;;;4.45;2.5;;;;;;;7.48;66.10059;95287.06;;;;
2020/02/21 00:21:24;;;;;;;3.7;2.5;;;;;;;7.77;65.38867;95273.42;;;;
2020/02/21 00:22:25;;;;;;;3.7;2.5;;;;;;;7.77;65.38867;95273.42;;;;
2020/02/21 00:23:25;;;;;;;3.7;2.5;;;;;;;7.77;65.38867;95273.42;;;;
2020/02/21 00:24:26;;;;;;;3.7;2.5;;;;;;;7.77;65.38867;95273.42;;;;
2020/02/21 00:25:26;;;;;;;3.7;2.5;;;;;;;7.77;65.38867;95273.42;;;;
2020/02/21 00:26:26;;;;;;;3.7;2.5;;;;;;;7.77;65.38867;95273.42;;;;
2020/02/21 00:27:27;;;;;;;3.7;2.5;;;;;;;7.77;65.38867;95273.42;;;;
2020/02/21 00:28:27;;;;;;;3.7;2.5;;;;;;;7.77;65.38867;95273.42;;;;
2020/02/21 00:29:28;;;;;;;3.7;2.5;;;;;;;7.77;65.38867;95273.42;;;;
2020/02/21 00:30:28;;;;;;;3.7;2.5;;;;;;;7.77;65.38867;95273.42;;;;
2020/02/21 00:31:29;;;;;;;3.7;2.5;;;;;;;7.77;65.38867;95273.42;;;;
2020/02/21 00:32:29;;;;;;;5.05;2.7;;;;;;;8.07;64.68652;95297.77;;;;
2020/02/21 00:33:30;;;;;;;5.05;2.7;;;;;;;8.07;64.68652;95297.77;;;;
2020/02/21 00:34:30;;;;;;;5.05;2.7;;;;;;;8.07;64.68652;95297.77;;;;
2020/02/21 00:35:31;;;;;;;5.05;2.7;;;;;;;8.07;64.68652;95297.77;;;;
2020/02/21 00:36:31;;;;;;;5.05;2.7;;;;;;;8.07;64.68652;95297.77;;;;
2020/02/21 00:37:32;;;;;;;5.05;2.7;;;;;;;8.07;64.68652;95297.77;;;;
2020/02/21 00:38:32;;;;;;;5.05;2.7;;;;;;;8.07;64.68652;95297.77;;;;
2020/02/21 00:39:32;;;;;;;5.05;2.7;;;;;;;8.07;64.68652;95297.77;;;;
2020/02/21 00:40:33;;;;;;;5.05;2.7;;;;;;;8.07;64.68652;95297.77;;;;
2020/02/21 00:41:39;;;;;;;5.05;2.7;;;;;;;8.07;64.68652;95297.77;;;;
2020/02/21 00:47:51;;;;;;;3.6;2.4;;;;;;;8.11;65.96289;95324.02;;;;
2020/02/21 00:48:52;;;;;;;3.6;2.4;;;;;;;8.11;65.96289;95324.02;;;;
2020/02/21 00:49:52;;;;;;;3.6;2.4;;;;;;;8.11;65.96289;95324.02;;;;
2020/02/21 00:50:53;;;;;;;3.6;2.4;;;;;;;8.11;65.96289;95324.02;;;;
2020/02/21 00:51:53;;;;;;;3.6;2.4;;;;;;;8.11;65.96289;95324.02;;;;
2020/02/21 00:52:54;;;;;;;3.6;2.4;;;;;;;8.11;65.96289;95324.02;;;;
2020/02/21 00:53:54;;;;;;;5.55;2.45;;;;;;;7.97;68.7334;95360.51;;;;
2020/02/21 00:54:55;;;;;;;5.55;2.45;;;;;;;7.97;68.7334;95360.51;;;;
2020/02/21 00:55:55;;;;;;;5.55;2.45;;;;;;;7.97;68.7334;95360.51;;;;
2020/02/21 00:56:56;;;;;;;5.55;2.45;;;;;;;7.97;68.7334;95360.51;;;;
2020/02/21 00:57:57;;;;;;;5.55;2.45;;;;;;;7.97;68.7334;95360.51;;;;
2020/02/21 00:58:57;;;;;;;5.55;2.45;;;;;;;7.97;68.7334;95360.51;;;;
2020/02/21 00:59:58;;;;;;;5.55;2.45;;;;;;;7.97;68.7334;95360.51;;;;
2020/02/21 01:00:58;;;;;;;5.55;2.45;;;;;;;7.97;68.7334;95360.51;;;;
2020/02/21 01:02:00;;;;;;;5.55;2.45;;;;;;;7.97;68.7334;95360.51;;;;
2020/02/21 01:03:00;;;;;;;5.55;2.45;;;;;;;7.97;68.7334;95360.51;;;;
2020/02/21 01:04:01;;;;;;;3.6;2.45;;;;;;;7.7;70.51074;95364.95;;;;
2020/02/21 01:05:02;;;;;;;3.6;2.45;;;;;;;7.7;70.51074;95364.95;;;;
2020/02/21 01:06:12;;;;;;;3.6;2.45;;;;;;;7.7;70.51074;95364.95;;;;
2020/02/21 01:07:13;;;;;;;3.6;2.45;;;;;;;7.7;70.51074;95364.95;;;;
2020/02/21 01:08:16;;;;;;;3.6;2.45;;;;;;;7.7;70.51074;95364.95;;;;
2020/02/21 01:09:17;;;;;;;3.6;2.45;;;;;;;7.7;70.51074;95364.95;;;;
2020/02/21 01:10:49;;;;;;;3.6;2.45;;;;;;;7.7;70.51074;95364.95;;;;
2020/02/21 01:11:50;;;;;;;3.6;2.45;;;;;;;7.7;70.51074;95364.95;;;;
2020/02/21 01:12:52;;;;;;;3.6;2.45;;;;;;;7.7;70.51074;95364.95;;;;
2020/02/21 01:13:53;;;;;;;3.6;2.45;;;;;;;7.7;70.51074;95364.95;;;;
2020/02/21 01:14:53;;;;;;;2.8;2.4;;;;;;;7.54;71.95215;95366.8;;;;
2020/02/21 01:15:54;;;;;;;2.8;2.4;;;;;;;7.54;71.95215;95366.8;;;;
2020/02/21 01:16:55;;;;;;;2.8;2.4;;;;;;;7.54;71.95215;95366.8;;;;
2020/02/21 01:17:55;;;;;;;2.8;2.4;;;;;;;7.54;71.95215;95366.8;;;;
2020/02/21 01:18:56;;;;;;;2.8;2.4;;;;;;;7.54;71.95215;95366.8;;;;
2020/02/21 01:19:56;;;;;;;2.8;2.4;;;;;;;7.54;71.95215;95366.8;;;;
2020/02/21 01:20:57;;;;;;;2.8;2.4;;;;;;;7.54;71.95215;95366.8;;;;
2020/02/21 01:21:58;;;;;;;2.8;2.4;;;;;;;7.54;71.95215;95366.8;;;;
2020/02/21 01:22:59;;;;;;;2.8;2.4;;;;;;;7.54;71.95215;95366.8;;;;
2020/02/21 01:24:00;;;;;;;2.8;2.4;;;;;;;7.54;71.95215;95366.8;;;;
2020/02/21 01:25:00;;;;;;;2.8;2.4;;;;;;;7.54;71.95215;95366.8;;;;
2020/02/21 01:26:00;;;;;;;2.65;2.25;;;;;;;7.47;72.49219;95376.73;;;;
2020/02/21 01:27:01;;;;;;;2.65;2.25;;;;;;;7.47;72.49219;95376.73;;;;
2020/02/21 01:28:14;;;;;;;2.65;2.25;;;;;;;7.47;72.49219;95376.73;;;;
2020/02/21 01:29:17;;;;;;;2.65;2.25;;;;;;;7.47;72.49219;95376.73;;;;
2020/02/21 01:30:18;;;;;;;2.65;2.25;;;;;;;7.47;72.49219;95376.73;;;;
2020/02/21 01:31:19;;;;;;;2.65;2.25;;;;;;;7.47;72.49219;95376.73;;;;
2020/02/21 01:32:23;;;;;;;2.65;2.25;;;;;;;7.47;72.49219;95376.73;;;;
2020/02/21 01:33:23;;;;;;;2.65;2.25;;;;;;;7.47;72.49219;95376.73;;;;
2020/02/21 01:34:25;;;;;;;2.65;2.25;;;;;;;7.47;72.49219;95376.73;;;;
2020/02/21 01:35:25;;;;;;;2.65;2.25;;;;;;;7.47;72.49219;95376.73;;;;
2020/02/21 01:36:28;;;;;;;4.05;2.6;;;;;;;7.41;73.55762;95379.78;;;;
2020/02/21 01:37:29;;;;;;;4.05;2.6;;;;;;;7.41;73.55762;95379.78;;;;
2020/02/21 01:38:29;;;;;;;4.05;2.6;;;;;;;7.41;73.55762;95379.78;;;;
2020/02/21 01:39:30;;;;;;;4.05;2.6;;;;;;;7.41;73.55762;95379.78;;;;
2020/02/21 01:40:32;;;;;;;4.05;2.6;;;;;;;7.41;73.55762;95379.78;;;;
2020/02/21 01:41:33;;;;;;;4.05;2.6;;;;;;;7.41;73.55762;95379.78;;;;
2020/02/21 01:42:37;;;;;;;4.05;2.6;;;;;;;7.41;73.55762;95379.78;;;;
2020/02/21 01:43:38;;;;;;;4.05;2.6;;;;;;;7.41;73.55762;95379.78;;;;
2020/02/21 01:44:38;;;;;;;4.05;2.6;;;;;;;7.41;73.55762;95379.78;;;;
2020/02/21 01:45:39;;;;;;;4.05;2.6;;;;;;;7.41;73.55762;95379.78;;;;
2020/02/21 01:46:39;;;;;;;3.1;2.55;;;;;;;7.3;74.1123;95383.94;;;;
2020/02/21 01:47:40;;;;;;;3.1;2.55;;;;;;;7.3;74.1123;95383.94;;;;
2020/02/21 01:48:42;;;;;;;3.1;2.55;;;;;;;7.3;74.1123;95383.94;;;;
2020/02/21 01:49:43;;;;;;;3.1;2.55;;;;;;;7.3;74.1123;95383.94;;;;
2020/02/21 01:50:44;;;;;;;3.1;2.55;;;;;;;7.3;74.1123;95383.94;;;;
2020/02/21 01:51:48;;;;;;;3.1;2.55;;;;;;;7.3;74.1123;95383.94;;;;
2020/02/21 01:52:51;;;;;;;3.1;2.55;;;;;;;7.3;74.1123;95383.94;;;;
2020/02/21 01:53:56;;;;;;;3.1;2.55;;;;;;;7.3;74.1123;95383.94;;;;
2020/02/21 01:55:10;;;;;;;3.1;2.55;;;;;;;7.3;74.1123;95383.94;;;;
2020/02/21 01:56:12;;;;;;;3.1;2.55;;;;;;;7.3;74.1123;95383.94;;;;
2020/02/21 01:57:14;;;;;;;5.1;2.85;;;;;;;7.15;75.07324;95391.04;;;;
2020/02/21 01:58:27;;;;;;;5.1;2.85;;;;;;;7.15;75.07324;95391.04;;;;
2020/02/21 01:59:35;;;;;;;5.1;2.85;;;;;;;7.15;75.07324;95391.04;;;;
2020/02/21 02:00:38;;;;;;;5.1;2.85;;;;;;;7.15;75.07324;95391.04;;;;
2020/02/21 02:01:38;;;;;;;5.1;2.85;;;;;;;7.15;75.07324;95391.04;;;;
2020/02/21 02:02:46;;;;;;;5.1;2.85;;;;;;;7.15;75.07324;95391.04;;;;
2020/02/21 02:03:50;;;;;;;5.1;2.85;;;;;;;7.15;75.07324;95391.04;;;;
2020/02/21 02:10:21;;;;;;;5.1;2.85;;;;;;;7.15;75.07324;95391.04;;;;
2020/02/21 02:11:27;;;;;;;5.1;2.85;;;;;;;7.15;75.07324;95391.04;;;;
2020/02/21 02:17:44;;;;;;;5.1;2.85;;;;;;;7.15;75.07324;95391.04;;;;
2020/02/21 02:18:44;;;;;;;4.05;3.15;;;;;;;7.12;76.19336;95429.44;;;;
2020/02/21 02:19:45;;;;;;;4.05;3.15;;;;;;;7.12;76.19336;95429.44;;;;
2020/02/21 02:20:46;;;;;;;4.05;3.15;;;;;;;7.12;76.19336;95429.44;;;;
2020/02/21 02:21:50;;;;;;;4.05;3.15;;;;;;;7.12;76.19336;95429.44;;;;
2020/02/21 02:22:52;;;;;;;4.05;3.15;;;;;;;7.12;76.19336;95429.44;;;;
2020/02/21 02:23:58;;;;;;;4.05;3.15;;;;;;;7.12;76.19336;95429.44;;;;
2020/02/21 02:25:00;;;;;;;4.05;3.15;;;;;;;7.12;76.19336;95429.44;;;;
2020/02/21 02:26:00;;;;;;;4.05;3.15;;;;;;;7.12;76.19336;95429.44;;;;
2020/02/21 02:27:02;;;;;;;4.05;3.15;;;;;;;7.12;76.19336;95429.44;;;;
2020/02/21 02:28:05;;;;;;;4.05;3.15;;;;;;;7.12;76.19336;95429.44;;;;
2020/02/21 02:29:06;;;;;;;1.8;1.6;;;;;;;6.45;78.7334;95528.19;;;;
2020/02/21 02:30:07;;;;;;;1.8;1.6;;;;;;;6.45;78.7334;95528.19;;;;
2020/02/21 02:31:12;;;;;;;1.8;1.6;;;;;;;6.45;78.7334;95528.19;;;;
2020/02/21 02:32:13;;;;;;;1.8;1.6;;;;;;;6.45;78.7334;95528.19;;;;
2020/02/21 02:33:15;;;;;;;1.8;1.6;;;;;;;6.45;78.7334;95528.19;;;;
2020/02/21 02:34:19;;;;;;;1.8;1.6;;;;;;;6.45;78.7334;95528.19;;;;
2020/02/21 02:35:20;;;;;;;1.8;1.6;;;;;;;6.45;78.7334;95528.19;;;;
2020/02/21 02:36:21;;;;;;;1.8;1.6;;;;;;;6.45;78.7334;95528.19;;;;
2020/02/21 02:37:22;;;;;;;1.8;1.6;;;;;;;6.45;78.7334;95528.19;;;;
2020/02/21 02:38:22;;;;;;;1.8;1.6;;;;;;;6.45;78.7334;95528.19;;;;
2020/02/21 02:39:24;;;;;;;1.8;1.6;;;;;;;6.45;78.7334;95528.19;;;;
2020/02/21 02:40:25;;;;;;;1.1;1;;;;;;;5.58;78.97754;95547.36;;;;
2020/02/21 02:41:31;;;;;;;1.1;1;;;;;;;5.58;78.97754;95547.36;;;;
2020/02/21 02:42:32;;;;;;;1.1;1;;;;;;;5.58;78.97754;95547.36;;;;
2020/02/21 02:43:34;;;;;;;1.1;1;;;;;;;5.58;78.97754;95547.36;;;;
2020/02/21 02:44:39;;;;;;;1.1;1;;;;;;;5.58;78.97754;95547.36;;;;
2020/02/21 02:45:41;;;;;;;1.1;1;;;;;;;5.58;78.97754;95547.36;;;;
2020/02/21 02:46:47;;;;;;;1.1;1;;;;;;;5.58;78.97754;95547.36;;;;
2020/02/21 02:47:49;;;;;;;1.1;1;;;;;;;5.58;78.97754;95547.36;;;;
2020/02/21 02:48:50;;;;;;;1.1;1;;;;;;;5.58;78.97754;95547.36;;;;
2020/02/21 02:49:51;;;;;;;1.1;1;;;;;;;5.58;78.97754;95547.36;;;;
2020/02/21 02:50:52;;;;;;;1.4;1;;;;;;;5.07;79.30664;95550.48;;;;
2020/02/21 02:51:57;;;;;;;1.4;1;;;;;;;5.07;79.30664;95550.48;;;;
2020/02/21 02:53:00;;;;;;;1.4;1;;;;;;;5.07;79.30664;95550.48;;;;
2020/02/21 02:54:03;;;;;;;1.4;1;;;;;;;5.07;79.30664;95550.48;;;;
2020/02/21 02:55:09;;;;;;;1.4;1;;;;;;;5.07;79.30664;95550.48;;;;
2020/02/21 02:56:50;;;;;;;1.4;1;;;;;;;5.07;79.30664;95550.48;;;;
2020/02/21 02:57:56;;;;;;;1.4;1;;;;;;;5.07;79.30664;95550.48;;;;
2020/02/21 02:59:04;;;;;;;1.4;1;;;;;;;5.07;79.30664;95550.48;;;;
2020/02/21 03:05:05;;;;;;;1.1;1;;;;;;;4.83;79.31348;95592.38;;;;
2020/02/21 03:06:05;;;;;;;1.1;1;;;;;;;4.83;79.31348;95592.38;;;;
2020/02/21 03:07:06;;;;;;;1.1;1;;;;;;;4.83;79.31348;95592.38;;;;
2020/02/21 03:08:09;;;;;;;1.1;1;;;;;;;4.83;79.31348;95592.38;;;;
2020/02/21 03:09:10;;;;;;;1.1;1;;;;;;;4.83;79.31348;95592.38;;;;
2020/02/21 03:10:11;;;;;;;1.1;1;;;;;;;4.83;79.31348;95592.38;;;;
2020/02/21 03:11:12;;;;;;;1.1;1;;;;;;;4.83;79.31348;95592.38;;;;
2020/02/21 03:12:13;;;;;;;1.2;0.9;;;;;;;4.66;79.85156;95629.36;;;;
2020/02/21 03:13:13;;;;;;;1.2;0.9;;;;;;;4.66;79.85156;95629.36;;;;
2020/02/21 03:14:14;;;;;;;1.2;0.9;;;;;;;4.66;79.85156;95629.36;;;;
2020/02/21 03:15:22;;;;;;;1.2;0.9;;;;;;;4.66;79.85156;95629.36;;;;
2020/02/21 03:16:24;;;;;;;1.2;0.9;;;;;;;4.66;79.85156;95629.36;;;;
2020/02/21 03:17:27;;;;;;;1.2;0.9;;;;;;;4.66;79.85156;95629.36;;;;
2020/02/21 03:18:29;;;;;;;1.2;0.9;;;;;;;4.66;79.85156;95629.36;;;;
2020/02/21 03:19:33;;;;;;;1.2;0.9;;;;;;;4.66;79.85156;95629.36;;;;
2020/02/21 03:20:35;;;;;;;1.2;0.9;;;;;;;4.66;79.85156;95629.36;;;;
2020/02/21 03:21:39;;;;;;;1.2;0.9;;;;;;;4.66;79.85156;95629.36;;;;
2020/02/21 03:22:46;;;;;;;1.65;0.9;;;;;;;4.61;79.82227;95681.64;;;;
2020/02/21 03:23:52;;;;;;;1.65;0.9;;;;;;;4.61;79.82227;95681.64;;;;
2020/02/21 03:24:53;;;;;;;1.65;0.9;;;;;;;4.61;79.82227;95681.64;;;;
2020/02/21 03:26:01;;;;;;;1.65;0.9;;;;;;;4.61;79.82227;95681.64;;;;
2020/02/21 03:27:05;;;;;;;1.65;0.9;;;;;;;4.61;79.82227;95681.64;;;;
2020/02/21 03:28:08;;;;;;;1.65;0.9;;;;;;;4.61;79.82227;95681.64;;;;
2020/02/21 03:29:21;;;;;;;1.65;0.9;;;;;;;4.61;79.82227;95681.64;;;;
2020/02/21 03:30:28;;;;;;;1.65;0.9;;;;;;;4.61;79.82227;95681.64;;;;
2020/02/21 03:31:32;;;;;;;1.65;0.9;;;;;;;4.61;79.82227;95681.64;;;;
2020/02/21 03:32:41;;;;;;;2.35;0.9;;;;;;;4.44;77.83984;95698.53;;;;
2020/02/21 03:33:45;;;;;;;2.35;0.9;;;;;;;4.44;77.83984;95698.53;;;;
2020/02/21 03:34:45;;;;;;;2.35;0.9;;;;;;;4.44;77.83984;95698.53;;;;
2020/02/21 03:35:50;;;;;;;2.35;0.9;;;;;;;4.44;77.83984;95698.53;;;;
2020/02/21 03:36:53;;;;;;;2.35;0.9;;;;;;;4.44;77.83984;95698.53;;;;
2020/02/21 03:38:01;;;;;;;2.35;0.9;;;;;;;4.44;77.83984;95698.53;;;;
2020/02/21 03:39:08;;;;;;;2.35;0.9;;;;;;;4.44;77.83984;95698.53;;;;
2020/02/21 03:40:13;;;;;;;2.35;0.9;;;;;;;4.44;77.83984;95698.53;;;;
2020/02/21 03:41:16;;;;;;;2.35;0.9;;;;;;;4.44;77.83984;95698.53;;;;
2020/02/21 03:42:25;;;;;;;2.35;0.9;;;;;;;4.44;77.83984;95698.53;;;;
2020/02/21 03:43:27;;;;;;;1.1;1;;;;;;;4.16;76.68457;95703.74;;;;
2020/02/21 03:44:30;;;;;;;1.1;1;;;;;;;4.16;76.68457;95703.74;;;;
2020/02/21 03:45:53;;;;;;;1.1;1;;;;;;;4.16;76.68457;95703.74;;;;
2020/02/21 03:47:09;;;;;;;1.1;1;;;;;;;4.16;76.68457;95703.74;;;;
2020/02/21 03:48:37;;;;;;;1.1;1;;;;;;;4.16;76.68457;95703.74;;;;
2020/02/21 03:51:09;;;;;;;1.1;1;;;;;;;4.16;76.68457;95703.74;;;;
2020/02/21 03:52:37;;;;;;;1.1;1;;;;;;;4.16;76.68457;95703.74;;;;
2020/02/21 03:53:56;;;;;;;1.65;0.85;;;;;;;3.85;76.35547;95748.53;;;;
2020/02/21 03:55:17;;;;;;;1.65;0.85;;;;;;;3.85;76.35547;95748.53;;;;
2020/02/21 03:56:25;;;;;;;1.65;0.85;;;;;;;3.85;76.35547;95748.53;;;;
2020/02/21 03:57:37;;;;;;;1.65;0.85;;;;;;;3.85;76.35547;95748.53;;;;
2020/02/21 03:58:52;;;;;;;1.65;0.85;;;;;;;3.85;76.35547;95748.53;;;;
2020/02/21 04:00:14;;;;;;;1.65;0.85;;;;;;;3.85;76.35547;95748.53;;;;
2020/02/21 04:01:21;;;;;;;1.65;0.85;;;;;;;3.85;76.35547;95748.53;;;;
2020/02/21 04:05:17;;;;;;;2.2;1.1;;;;;;;3.73;76.11328;95793.11;;;;
2020/02/21 04:06:32;;;;;;;2.2;1.1;;;;;;;3.73;76.11328;95793.11;;;;
2020/02/21 04:07:50;;;;;;;2.2;1.1;;;;;;;3.73;76.11328;95793.11;;;;
2020/02/21 04:09:03;;;;;;;2.2;1.1;;;;;;;3.73;76.11328;95793.11;;;;
2020/02/21 04:10:15;;;;;;;2.2;1.1;;;;;;;3.73;76.11328;95793.11;;;;
2020/02/21 04:11:31;;;;;;;2.2;1.1;;;;;;;3.73;76.11328;95793.11;;;;
2020/02/21 04:12:47;;;;;;;2.2;1.1;;;;;;;3.73;76.11328;95793.11;;;;
2020/02/21 04:13:57;;;;;;;2.2;1.1;;;;;;;3.73;76.11328;95793.11;;;;
2020/02/21 04:15:08;;;;;;;1.4;1.05;;;;;;;3.46;75.99121;95832.39;;;;
2020/02/21 04:16:17;;;;;;;1.4;1.05;;;;;;;3.46;75.99121;95832.39;;;;
2020/02/21 04:17:33;;;;;;;1.4;1.05;;;;;;;3.46;75.99121;95832.39;;;;
2020/02/21 04:18:48;;;;;;;1.4;1.05;;;;;;;3.46;75.99121;95832.39;;;;
2020/02/21 04:19:55;;;;;;;1.4;1.05;;;;;;;3.46;75.99121;95832.39;;;;
2020/02/21 04:21:21;;;;;;;1.4;1.05;;;;;;;3.46;75.99121;95832.39;;;;
2020/02/21 04:22:42;;;;;;;1.4;1.05;;;;;;;3.46;75.99121;95832.39;;;;
2020/02/21 04:24:07;;;;;;;1.4;1.05;;;;;;;3.46;75.99121;95832.39;;;;
2020/02/21 04:25:39;;;;;;;1.45;1;;;;;;;3.24;76.04688;95850.56;;;;
2020/02/21 04:31:03;;;;;;;1.45;1;;;;;;;3.24;76.04688;95850.56;;;;
2020/02/21 04:32:38;;;;;;;1.45;1;;;;;;;3.24;76.04688;95850.56;;;;
2020/02/21 04:33:59;;;;;;;1.45;1;;;;;;;3.24;76.04688;95850.56;;;;
2020/02/21 04:35:24;;;;;;;1.45;1;;;;;;;3.24;76.04688;95850.56;;;;
2020/02/21 04:36:53;;;;;;;1.2;0.95;;;;;;;2.97;76.02344;95872.33;;;;
2020/02/21 04:38:17;;;;;;;1.2;0.95;;;;;;;2.97;76.02344;95872.33;;;;
2020/02/21 04:39:44;;;;;;;1.2;0.95;;;;;;;2.97;76.02344;95872.33;;;;
2020/02/21 04:41:20;;;;;;;1.2;0.95;;;;;;;2.97;76.02344;95872.33;;;;
2020/02/21 04:46:48;;;;;;;1.2;0.95;;;;;;;2.97;76.02344;95872.33;;;;
2020/02/21 04:48:26;;;;;;;2.65;1.1;;;;;;;2.72;76.35449;95909.55;;;;
2020/02/21 04:50:06;;;;;;;2.65;1.1;;;;;;;2.72;76.35449;95909.55;;;;
2020/02/21 04:51:37;;;;;;;2.65;1.1;;;;;;;2.72;76.35449;95909.55;;;;
2020/02/21 04:53:20;;;;;;;2.65;1.1;;;;;;;2.72;76.35449;95909.55;;;;
2020/02/21 04:58:35;;;;;;;1.75;1.2;;;;;;;2.44;76.44043;95944.69;;;;
2020/02/21 05:00:21;;;;;;;1.75;1.2;;;;;;;2.44;76.44043;95944.69;;;;
2020/02/21 05:01:40;;;;;;;1.75;1.2;;;;;;;2.44;76.44043;95944.69;;;;
2020/02/21 05:03:36;;;;;;;1.75;1.2;;;;;;;2.44;76.44043;95944.69;;;;
2020/02/21 05:05:21;;;;;;;1.75;1.2;;;;;;;2.44;76.44043;95944.69;;;;
2020/02/21 05:06:50;;;;;;;1.75;1.2;;;;;;;2.44;76.44043;95944.69;;;;
2020/02/21 05:12:06;;;;;;;4.15;1.2;;;;;;;2.27;76.54883;95968.27;;;;
2020/02/21 05:13:16;;;;;;;4.15;1.2;;;;;;;2.27;76.54883;95968.27;;;;
2020/02/21 05:14:42;;;;;;;4.15;1.2;;;;;;;2.27;76.54883;95968.27;;;;
2020/02/21 05:17:11;;;;;;;4.15;1.2;;;;;;;2.27;76.54883;95968.27;;;;
2020/02/21 05:18:40;;;;;;;4.15;1.2;;;;;;;2.27;76.54883;95968.27;;;;
2020/02/21 05:20:07;;;;;;;3.95;1.3;;;;;;;2.1;76.53711;95993.77;;;;
2020/02/21 05:21:31;;;;;;;3.95;1.3;;;;;;;2.1;76.53711;95993.77;;;;
2020/02/21 05:22:47;;;;;;;3.95;1.3;;;;;;;2.1;76.53711;95993.77;;;;
2020/02/21 05:24:23;;;;;;;3.95;1.3;;;;;;;2.1;76.53711;95993.77;;;;
2020/02/21 05:27:44;;;;;;;3.95;1.3;;;;;;;2.1;76.53711;95993.77;;;;
2020/02/21 05:29:03;;;;;;;3.95;1.3;;;;;;;2.1;76.53711;95993.77;;;;
2020/02/21 05:30:17;;;;;;;2.55;1.3;;;;;;;2.02;76.79688;96007.9;;;;
2020/02/21 05:31:23;;;;;;;2.55;1.3;;;;;;;2.02;76.79688;96007.9;;;;
2020/02/21 05:32:41;;;;;;;2.55;1.3;;;;;;;2.02;76.79688;96007.9;;;;
2020/02/21 05:33:48;;;;;;;2.55;1.3;;;;;;;2.02;76.79688;96007.9;;;;
2020/02/21 05:35:12;;;;;;;2.55;1.3;;;;;;;2.02;76.79688;96007.9;;;;
2020/02/21 05:37:32;;;;;;;2.55;1.3;;;;;;;2.02;76.79688;96007.9;;;;
2020/02/21 05:39:53;;;;;;;2.6;1.3;;;;;;;1.91;76.58789;96035.77;;;;
2020/02/21 05:41:41;;;;;;;2.6;1.3;;;;;;;1.91;76.58789;96035.77;;;;
2020/02/21 05:43:02;;;;;;;2.6;1.3;;;;;;;1.91;76.58789;96035.77;;;;
2020/02/21 05:44:14;;;;;;;2.6;1.3;;;;;;;1.91;76.58789;96035.77;;;;
2020/02/21 05:45:33;;;;;;;2.6;1.3;;;;;;;1.91;76.58789;96035.77;;;;
2020/02/21 05:46:45;;;;;;;2.6;1.3;;;;;;;1.91;76.58789;96035.77;;;;
2020/02/21 05:47:52;;;;;;;2.6;1.3;;;;;;;1.91;76.58789;96035.77;;;;
2020/02/21 05:48:57;;;;;;;2.6;1.3;;;;;;;1.91;76.58789;96035.77;;;;
2020/02/21 05:50:06;;;;;;;2.6;1.3;;;;;;;1.91;76.58789;96035.77;;;;
2020/02/21 05:51:15;;;;;;;1.65;1.15;;;;;;;1.83;76.56152;96040.67;;;;
2020/02/21 05:52:17;;;;;;;1.65;1.15;;;;;;;1.83;76.56152;96040.67;;;;
2020/02/21 05:53:19;;;;;;;1.65;1.15;;;;;;;1.83;76.56152;96040.67;;;;
2020/02/21 05:54:25;;;;;;;1.65;1.15;;;;;;;1.83;76.56152;96040.67;;;;
2020/02/21 05:55:26;;;;;;;1.65;1.15;;;;;;;1.83;76.56152;96040.67;;;;
2020/02/21 05:56:31;;;;;;;1.65;1.15;;;;;;;1.83;76.56152;96040.67;;;;
2020/02/21 05:57:36;;;;;;;1.65;1.15;;;;;;;1.83;76.56152;96040.67;;;;
2020/02/21 05:58:46;;;;;;;1.65;1.15;;;;;;;1.83;76.56152;96040.67;;;;
2020/02/21 05:59:53;;;;;;;1.65;1.15;;;;;;;1.83;76.56152;96040.67;;;;
2020/02/21 06:01:03;;;;;;;1.65;1.15;;;;;;;1.83;76.56152;96040.67;;;;
2020/02/21 06:02:09;;;;;;;2.7;1.6;;;;;;;1.65;76.42676;96072.75;;;;
2020/02/21 06:03:11;;;;;;;2.7;1.6;;;;;;;1.65;76.42676;96072.75;;;;
2020/02/21 06:04:19;;;;;;;2.7;1.6;;;;;;;1.65;76.42676;96072.75;;;;
2020/02/21 06:05:41;;;;;;;2.7;1.6;;;;;;;1.65;76.42676;96072.75;;;;
2020/02/21 06:06:57;;;;;;;2.7;1.6;;;;;;;1.65;76.42676;96072.75;;;;
2020/02/21 06:08:04;;;;;;;2.7;1.6;;;;;;;1.65;76.42676;96072.75;;;;
2020/02/21 06:10:19;;;;;;;2.7;1.6;;;;;;;1.65;76.42676;96072.75;;;;
2020/02/21 06:11:29;;;;;;;2.7;1.6;;;;;;;1.65;76.42676;96072.75;;;;
2020/02/21 06:12:41;;;;;;;2.85;1.4;;;;;;;1.64;76.6123;96098.21;;;;
2020/02/21 06:13:53;;;;;;;2.85;1.4;;;;;;;1.64;76.6123;96098.21;;;;
2020/02/21 06:15:05;;;;;;;2.85;1.4;;;;;;;1.64;76.6123;96098.21;;;;
2020/02/21 06:16:12;;;;;;;2.85;1.4;;;;;;;1.64;76.6123;96098.21;;;;
2020/02/21 06:17:22;;;;;;;2.85;1.4;;;;;;;1.64;76.6123;96098.21;;;;
2020/02/21 06:18:27;;;;;;;2.85;1.4;;;;;;;1.64;76.6123;96098.21;;;;
2020/02/21 06:19:31;;;;;;;2.85;1.4;;;;;;;1.64;76.6123;96098.21;;;;
2020/02/21 06:20:37;;;;;;;2.85;1.4;;;;;;;1.64;76.6123;96098.21;;;;
2020/02/21 06:21:45;;;;;;;2.85;1.4;;;;;;;1.64;76.6123;96098.21;;;;
2020/02/21 06:22:47;;;;;;;3.25;1.3;;;;;;;1.66;76.43945;96097.51;;;;
2020/02/21 06:23:53;;;;;;;3.25;1.3;;;;;;;1.66;76.43945;96097.51;;;;
2020/02/21 06:25:00;;;;;;;3.25;1.3;;;;;;;1.66;76.43945;96097.51;;;;
2020/02/21 06:26:03;;;;;;;3.25;1.3;;;;;;;1.66;76.43945;96097.51;;;;
2020/02/21 06:27:12;;;;;;;3.25;1.3;;;;;;;1.66;76.43945;96097.51;;;;
2020/02/21 06:28:20;;;;;;;3.25;1.3;;;;;;;1.66;76.43945;96097.51;;;;
2020/02/21 06:29:25;;;;;;;3.25;1.3;;;;;;;1.66;76.43945;96097.51;;;;
2020/02/21 06:30:27;;;;;;;3.25;1.3;;;;;;;1.66;76.43945;96097.51;;;;
2020/02/21 06:31:29;;;;;;;3.25;1.3;;;;;;;1.66;76.43945;96097.51;;;;
2020/02/21 06:32:38;;;;;;;3.25;1.3;;;;;;;1.66;76.43945;96097.51;;;;
2020/02/21 06:33:48;;;;;;;2.6;1.4;;;;;;;1.86;76.2959;96112.22;;;;
2020/02/21 06:34:49;;;;;;;2.6;1.4;;;;;;;1.86;76.2959;96112.22;;;;
2020/02/21 06:35:50;;;;;;;2.6;1.4;;;;;;;1.86;76.2959;96112.22;;;;
2020/02/21 06:36:56;;;;;;;2.6;1.4;;;;;;;1.86;76.2959;96112.22;;;;
2020/02/21 06:38:04;;;;;;;2.6;1.4;;;;;;;1.86;76.2959;96112.22;;;;
2020/02/21 06:39:06;;;;;;;2.6;1.4;;;;;;;1.86;76.2959;96112.22;;;;
2020/02/21 06:40:07;;;;;;;2.6;1.4;;;;;;;1.86;76.2959;96112.22;;;;
2020/02/21 06:41:14;;;;;;;2.6;1.4;;;;;;;1.86;76.2959;96112.22;;;;
2020/02/21 06:42:21;;;;;;;2.6;1.4;;;;;;;1.86;76.2959;96112.22;;;;
2020/02/21 06:43:28;;;;;;;2.6;1.4;;;;;;;1.86;76.2959;96112.22;;;;
2020/02/21 06:44:47;;;;;;;2.75;1.4;;;;;;;2.07;75.6416;96132.98;;;;
2020/02/21 06:45:59;;;;;;;2.75;1.4;;;;;;;2.07;75.6416;96132.98;;;;
2020/02/21 06:47:21;;;;;;;2.75;1.4;;;;;;;2.07;75.6416;96132.98;;;;
2020/02/21 06:48:36;;;;;;;2.75;1.4;;;;;;;2.07;75.6416;96132.98;;;;
2020/02/21 06:49:50;;;;;;;2.75;1.4;;;;;;;2.07;75.6416;96132.98;;;;
2020/02/21 06:51:05;;;;;;;2.75;1.4;;;;;;;2.07;75.6416;96132.98;;;;
2020/02/21 06:52:16;;;;;;;2.75;1.4;;;;;;;2.07;75.6416;96132.98;;;;
2020/02/21 06:53:25;;;;;;;2.75;1.4;;;;;;;2.07;75.6416;96132.98;;;;
2020/02/21 06:54:37;;;;;;;3.4;1.2;;;;;;;2.35;75.05078;96158.37;;;;
2020/02/21 06:55:40;;;;;;;3.4;1.2;;;;;;;2.35;75.05078;96158.37;;;;
2020/02/21 06:56:41;;;;;;;3.4;1.2;;;;;;;2.35;75.05078;96158.37;;;;
2020/02/21 06:57:52;;;;;;;3.4;1.2;;;;;;;2.35;75.05078;96158.37;;;;
2020/02/21 06:59:34;;;;;;;3.4;1.2;;;;;;;2.35;75.05078;96158.37;;;;
2020/02/21 07:00:37;;;;;;;3.4;1.2;;;;;;;2.35;75.05078;96158.37;;;;
2020/02/21 07:01:41;;;;;;;3.4;1.2;;;;;;;2.35;75.05078;96158.37;;;;
2020/02/21 07:02:44;;;;;;;3.4;1.2;;;;;;;2.35;75.05078;96158.37;;;;
2020/02/21 07:03:45;;;;;;;3.4;1.2;;;;;;;2.35;75.05078;96158.37;;;;
2020/02/21 07:04:45;;;;;;;3.4;1.2;;;;;;;2.35;75.05078;96158.37;;;;
2020/02/21 07:05:46;;;;;;;3.65;1.4;;;;;;;2.54;74.37109;96182.03;;;;
2020/02/21 07:06:51;;;;;;;3.65;1.4;;;;;;;2.54;74.37109;96182.03;;;;
2020/02/21 07:07:52;;;;;;;3.65;1.4;;;;;;;2.54;74.37109;96182.03;;;;
2020/02/21 07:08:53;;;;;;;3.65;1.4;;;;;;;2.54;74.37109;96182.03;;;;
2020/02/21 07:09:54;;;;;;;3.65;1.4;;;;;;;2.54;74.37109;96182.03;;;;
2020/02/21 07:11:03;;;;;;;3.65;1.4;;;;;;;2.54;74.37109;96182.03;;;;
2020/02/21 07:12:03;;;;;;;3.65;1.4;;;;;;;2.54;74.37109;96182.03;;;;
2020/02/21 07:13:04;;;;;;;3.65;1.4;;;;;;;2.54;74.37109;96182.03;;;;
2020/02/21 07:14:07;;;;;;;3.65;1.4;;;;;;;2.54;74.37109;96182.03;;;;
2020/02/21 07:15:08;;;;;;;3.65;1.4;;;;;;;2.54;74.37109;96182.03;;;;
2020/02/21 07:16:09;;;;;;;2.8;1.2;;;;;;;2.61;74.04688;96194.22;;;;
2020/02/21 07:17:09;;;;;;;2.8;1.2;;;;;;;2.61;74.04688;96194.22;;;;
2020/02/21 07:18:11;;;;;;;2.8;1.2;;;;;;;2.61;74.04688;96194.22;;;;
2020/02/21 07:19:12;;;;;;;2.8;1.2;;;;;;;2.61;74.04688;96194.22;;;;
2020/02/21 07:20:13;;;;;;;2.8;1.2;;;;;;;2.61;74.04688;96194.22;;;;
2020/02/21 07:21:13;;;;;;;2.8;1.2;;;;;;;2.61;74.04688;96194.22;;;;
2020/02/21 07:22:15;;;;;;;2.8;1.2;;;;;;;2.61;74.04688;96194.22;;;;
2020/02/21 07:23:17;;;;;;;2.8;1.2;;;;;;;2.61;74.04688;96194.22;;;;
2020/02/21 07:24:18;;;;;;;2.8;1.2;;;;;;;2.61;74.04688;96194.22;;;;